sensor_id;sensor_type;location;lat;lon;timestamp;pressure;altitude;pressure_sealevel;temperature;humidity
15444;BME280;7822;48.146;11.576;2022-07-12T00:02:15;96051.13;;;20.71;53.89
15444;BME280;7822;48.146;11.576;2022-07-12T00:04:43;96046.84;;;20.69;54.49
15444;BME280;7822;48.146;11.576;2022-07-12T00:07:13;96052.28;;;20.68;54.50
15444;BME280;7822;48.146;11.576;2022-07-12T00:09:40;96056.25;;;20.72;54.41
15444;BME280;7822;48.146;11.576;2022-07-12T00:12:09;96048.00;;;20.67;54.60
15444;BME280;7822;48.146;11.576;2022-07-12T00:14:37;96046.50;;;20.64;54.61
15444;BME280;7822;48.146;11.576;2022-07-12T00:17:05;96050.31;;;20.62;54.97
15444;BME280;7822;48.146;11.576;2022-07-12T00:19:32;96055.25;;;20.57;55.08
15444;BME280;7822;48.146;11.576;2022-07-12T00:22:00;96048.47;;;20.54;55.04
15444;BME280;7822;48.146;11.576;2022-07-12T00:24:29;96060.00;;;20.53;55.30
15444;BME280;7822;48.146;11.576;2022-07-12T00:26:57;96052.44;;;20.50;55.44
15444;BME280;7822;48.146;11.576;2022-07-12T00:29:25;96051.78;;;20.48;55.27
15444;BME280;7822;48.146;11.576;2022-07-12T00:31:52;96045.69;;;20.48;55.28
15444;BME280;7822;48.146;11.576;2022-07-12T00:34:20;96058.19;;;20.46;55.92
15444;BME280;7822;48.146;11.576;2022-07-12T00:36:48;96058.34;;;20.44;55.61
15444;BME280;7822;48.146;11.576;2022-07-12T00:39:16;96047.13;;;20.42;55.72
15444;BME280;7822;48.146;11.576;2022-07-12T00:41:47;96054.25;;;20.42;55.80
15444;BME280;7822;48.146;11.576;2022-07-12T00:44:15;96055.88;;;20.43;55.50
15444;BME280;7822;48.146;11.576;2022-07-12T00:46:43;96047.31;;;20.41;55.55
15444;BME280;7822;48.146;11.576;2022-07-12T00:49:13;96053.72;;;20.38;55.95
15444;BME280;7822;48.146;11.576;2022-07-12T00:51:42;96053.06;;;20.36;55.96
15444;BME280;7822;48.146;11.576;2022-07-12T00:54:11;96053.06;;;20.36;56.03
15444;BME280;7822;48.146;11.576;2022-07-12T00:56:38;96052.41;;;20.34;55.99
15444;BME280;7822;48.146;11.576;2022-07-12T00:59:08;96051.75;;;20.32;56.24
15444;BME280;7822;48.146;11.576;2022-07-12T01:01:36;96056.66;;;20.27;56.49
15444;BME280;7822;48.146;11.576;2022-07-12T01:04:05;96041.03;;;20.26;56.42
15444;BME280;7822;48.146;11.576;2022-07-12T01:06:33;96048.09;;;20.25;56.42
15444;BME280;7822;48.146;11.576;2022-07-12T01:09:01;96052.88;;;20.22;56.52
15444;BME280;7822;48.146;11.576;2022-07-12T01:11:30;96048.59;;;20.21;56.36
15444;BME280;7822;48.146;11.576;2022-07-12T01:13:58;96052.31;;;20.18;56.71
15444;BME280;7822;48.146;11.576;2022-07-12T01:16:30;96044.75;;;20.15;56.74
15444;BME280;7822;48.146;11.576;2022-07-12T01:18:59;96048.22;;;20.16;56.85
15444;BME280;7822;48.146;11.576;2022-07-12T01:21:31;96048.72;;;20.11;56.94
15444;BME280;7822;48.146;11.576;2022-07-12T01:24:04;96048.03;;;20.09;56.81
15444;BME280;7822;48.146;11.576;2022-07-12T01:26:32;96045.09;;;20.20;55.70
15444;BME280;7822;48.146;11.576;2022-07-12T01:29:00;96052.50;;;20.17;56.61
15444;BME280;7822;48.146;11.576;2022-07-12T01:31:28;96047.41;;;20.15;56.18
15444;BME280;7822;48.146;11.576;2022-07-12T01:33:56;96049.84;;;20.09;57.23
15444;BME280;7822;48.146;11.576;2022-07-12T01:36:24;96058.06;;;20.06;57.00
15444;BME280;7822;48.146;11.576;2022-07-12T01:38:51;96050.97;;;19.98;57.70
15444;BME280;7822;48.146;11.576;2022-07-12T01:41:21;96054.59;;;19.97;57.31
15444;BME280;7822;48.146;11.576;2022-07-12T01:43:50;96048.81;;;19.93;57.69
15444;BME280;7822;48.146;11.576;2022-07-12T01:46:17;96042.25;;;19.98;57.20
15444;BME280;7822;48.146;11.576;2022-07-12T01:48:45;96044.72;;;20.07;56.88
15444;BME280;7822;48.146;11.576;2022-07-12T01:51:13;96043.59;;;20.10;57.09
15444;BME280;7822;48.146;11.576;2022-07-12T01:53:41;96053.84;;;20.21;56.33
15444;BME280;7822;48.146;11.576;2022-07-12T01:56:09;96049.28;;;20.39;56.18
15444;BME280;7822;48.146;11.576;2022-07-12T01:58:38;96047.31;;;20.41;55.72
15444;BME280;7822;48.146;11.576;2022-07-12T02:01:08;96054.06;;;20.51;55.75
15444;BME280;7822;48.146;11.576;2022-07-12T02:03:37;96057.19;;;20.47;56.27
15444;BME280;7822;48.146;11.576;2022-07-12T02:06:05;96052.53;;;20.25;56.54
15444;BME280;7822;48.146;11.576;2022-07-12T02:08:33;96047.44;;;20.23;56.25
15444;BME280;7822;48.146;11.576;2022-07-12T02:11:00;96046.97;;;20.36;56.25
15444;BME280;7822;48.146;11.576;2022-07-12T02:13:28;96045.63;;;20.32;55.79
15444;BME280;7822;48.146;11.576;2022-07-12T02:15:57;96042.84;;;20.25;56.53
15444;BME280;7822;48.146;11.576;2022-07-12T02:18:25;96043.94;;;20.15;56.87
15444;BME280;7822;48.146;11.576;2022-07-12T02:20:53;96042.44;;;20.12;57.35
15444;BME280;7822;48.146;11.576;2022-07-12T02:23:21;96044.41;;;20.02;57.42
15444;BME280;7822;48.146;11.576;2022-07-12T02:25:48;96050.66;;;20.09;57.67
15444;BME280;7822;48.146;11.576;2022-07-12T02:28:16;96032.25;;;20.17;57.18
15444;BME280;7822;48.146;11.576;2022-07-12T02:30:44;96043.25;;;20.05;57.47
15444;BME280;7822;48.146;11.576;2022-07-12T02:33:14;96044.84;;;19.89;58.45
15444;BME280;7822;48.146;11.576;2022-07-12T02:35:43;96050.44;;;19.86;57.83
15444;BME280;7822;48.146;11.576;2022-07-12T02:38:11;96046.78;;;19.79;58.81
15444;BME280;7822;48.146;11.576;2022-07-12T02:40:38;96053.00;;;19.70;59.03
15444;BME280;7822;48.146;11.576;2022-07-12T02:43:21;96041.31;;;19.65;59.04
15444;BME280;7822;48.146;11.576;2022-07-12T02:45:51;96049.50;;;19.62;59.61
15444;BME280;7822;48.146;11.576;2022-07-12T02:48:20;96041.44;;;19.63;59.21
15444;BME280;7822;48.146;11.576;2022-07-12T02:50:48;96051.94;;;19.55;59.97
15444;BME280;7822;48.146;11.576;2022-07-12T02:53:34;96050.69;;;19.67;59.85
15444;BME280;7822;48.146;11.576;2022-07-12T02:56:07;96049.81;;;19.59;59.68
15444;BME280;7822;48.146;11.576;2022-07-12T02:58:35;96046.09;;;19.69;59.82
15444;BME280;7822;48.146;11.576;2022-07-12T03:01:03;96048.38;;;19.64;59.43
15444;BME280;7822;48.146;11.576;2022-07-12T03:03:32;96044.63;;;19.41;60.50
15444;BME280;7822;48.146;11.576;2022-07-12T03:06:00;96040.38;;;19.40;59.98
15444;BME280;7822;48.146;11.576;2022-07-12T03:08:28;96045.53;;;19.32;60.46
15444;BME280;7822;48.146;11.576;2022-07-12T03:10:56;96042.66;;;19.17;61.59
15444;BME280;7822;48.146;11.576;2022-07-12T03:13:24;96046.53;;;19.05;61.56
15444;BME280;7822;48.146;11.576;2022-07-12T03:15:52;96055.69;;;19.01;61.92
15444;BME280;7822;48.146;11.576;2022-07-12T03:18:19;96050.00;;;18.88;62.54
15444;BME280;7822;48.146;11.576;2022-07-12T03:20:49;96054.06;;;19.00;61.80
15444;BME280;7822;48.146;11.576;2022-07-12T03:23:17;96043.75;;;19.07;60.61
15444;BME280;7822;48.146;11.576;2022-07-12T03:25:44;96054.81;;;19.36;60.61
15444;BME280;7822;48.146;11.576;2022-07-12T03:28:12;96052.91;;;19.54;59.59
15444;BME280;7822;48.146;11.576;2022-07-12T03:30:40;96057.88;;;19.57;59.83
15444;BME280;7822;48.146;11.576;2022-07-12T03:33:07;96059.81;;;19.47;59.43
15444;BME280;7822;48.146;11.576;2022-07-12T03:35:35;96056.75;;;19.34;60.71
15444;BME280;7822;48.146;11.576;2022-07-12T03:38:04;96065.22;;;19.20;61.38
15444;BME280;7822;48.146;11.576;2022-07-12T03:40:32;96068.66;;;19.20;61.25
15444;BME280;7822;48.146;11.576;2022-07-12T03:43:01;96069.00;;;19.00;61.54
15444;BME280;7822;48.146;11.576;2022-07-12T03:45:28;96066.63;;;19.14;61.17
15444;BME280;7822;48.146;11.576;2022-07-12T03:47:56;96064.50;;;19.10;61.11
15444;BME280;7822;48.146;11.576;2022-07-12T03:50:24;96061.63;;;19.03;61.67
15444;BME280;7822;48.146;11.576;2022-07-12T03:52:51;96070.31;;;18.96;62.07
15444;BME280;7822;48.146;11.576;2022-07-12T03:55:21;96067.91;;;18.85;62.44
15444;BME280;7822;48.146;11.576;2022-07-12T03:57:49;96075.00;;;18.67;62.84
15444;BME280;7822;48.146;11.576;2022-07-12T04:00:17;96074.59;;;18.62;63.28
15444;BME280;7822;48.146;11.576;2022-07-12T04:02:45;96083.84;;;18.83;62.43
15444;BME280;7822;48.146;11.576;2022-07-12T04:05:13;96085.88;;;18.72;62.87
15444;BME280;7822;48.146;11.576;2022-07-12T04:07:40;96077.59;;;18.84;61.46
15444;BME280;7822;48.146;11.576;2022-07-12T04:10:08;96074.69;;;18.87;61.80
15444;BME280;7822;48.146;11.576;2022-07-12T04:12:38;96071.47;;;19.01;61.33
15444;BME280;7822;48.146;11.576;2022-07-12T04:15:07;96077.72;;;19.00;61.76
15444;BME280;7822;48.146;11.576;2022-07-12T04:17:35;96078.09;;;19.05;60.78
15444;BME280;7822;48.146;11.576;2022-07-12T04:20:03;96077.13;;;19.06;60.71
15444;BME280;7822;48.146;11.576;2022-07-12T04:22:31;96083.78;;;19.18;60.58
15444;BME280;7822;48.146;11.576;2022-07-12T04:24:59;96084.00;;;19.25;60.10
15444;BME280;7822;48.146;11.576;2022-07-12T04:27:26;96088.03;;;19.37;60.02
15444;BME280;7822;48.146;11.576;2022-07-12T04:29:56;96085.22;;;19.39;60.04
15444;BME280;7822;48.146;11.576;2022-07-12T04:32:28;96090.75;;;19.28;60.13
15444;BME280;7822;48.146;11.576;2022-07-12T04:34:56;96086.09;;;19.21;60.47
15444;BME280;7822;48.146;11.576;2022-07-12T04:37:24;96084.28;;;19.22;60.27
15444;BME280;7822;48.146;11.576;2022-07-12T04:39:52;96084.78;;;19.00;61.48
15444;BME280;7822;48.146;11.576;2022-07-12T04:42:20;96085.81;;;18.81;62.49
15444;BME280;7822;48.146;11.576;2022-07-12T04:44:47;96084.53;;;18.85;61.91
15444;BME280;7822;48.146;11.576;2022-07-12T04:47:16;96072.09;;;18.95;60.70
15444;BME280;7822;48.146;11.576;2022-07-12T04:49:44;96082.03;;;19.27;60.70
15444;BME280;7822;48.146;11.576;2022-07-12T04:52:12;96082.28;;;19.16;60.59
15444;BME280;7822;48.146;11.576;2022-07-12T04:54:40;96089.53;;;19.40;60.15
15444;BME280;7822;48.146;11.576;2022-07-12T04:57:07;96080.25;;;19.53;59.65
15444;BME280;7822;48.146;11.576;2022-07-12T04:59:35;96083.91;;;19.60;59.23
15444;BME280;7822;48.146;11.576;2022-07-12T05:02:03;96089.19;;;19.68;59.29
15444;BME280;7822;48.146;11.576;2022-07-12T05:04:33;96096.75;;;19.38;60.05
15444;BME280;7822;48.146;11.576;2022-07-12T05:07:01;96107.94;;;19.40;60.03
15444;BME280;7822;48.146;11.576;2022-07-12T05:09:28;96090.13;;;19.34;59.83
15444;BME280;7822;48.146;11.576;2022-07-12T05:11:56;96092.94;;;19.58;59.54
15444;BME280;7822;48.146;11.576;2022-07-12T05:14:24;96095.88;;;19.55;59.76
15444;BME280;7822;48.146;11.576;2022-07-12T05:16:52;96093.31;;;19.63;59.38
15444;BME280;7822;48.146;11.576;2022-07-12T05:19:20;96099.22;;;19.39;60.19
15444;BME280;7822;48.146;11.576;2022-07-12T05:21:49;96093.13;;;19.39;59.87
15444;BME280;7822;48.146;11.576;2022-07-12T05:24:17;96098.47;;;19.47;59.34
15444;BME280;7822;48.146;11.576;2022-07-12T05:26:44;96101.84;;;19.39;59.99
15444;BME280;7822;48.146;11.576;2022-07-12T05:29:12;96104.50;;;19.39;60.08
15444;BME280;7822;48.146;11.576;2022-07-12T05:31:40;96101.03;;;19.39;60.13
15444;BME280;7822;48.146;11.576;2022-07-12T05:34:08;96112.16;;;19.33;60.26
15444;BME280;7822;48.146;11.576;2022-07-12T05:36:36;96109.63;;;19.41;60.01
15444;BME280;7822;48.146;11.576;2022-07-12T05:39:05;96103.59;;;19.56;59.69
15444;BME280;7822;48.146;11.576;2022-07-12T05:41:33;96108.00;;;19.48;60.30
15444;BME280;7822;48.146;11.576;2022-07-12T05:44:00;96110.50;;;19.49;60.23
15444;BME280;7822;48.146;11.576;2022-07-12T05:46:28;96110.63;;;19.48;60.09
15444;BME280;7822;48.146;11.576;2022-07-12T05:48:56;96108.72;;;19.58;59.86
15444;BME280;7822;48.146;11.576;2022-07-12T05:51:24;96117.25;;;19.52;60.07
15444;BME280;7822;48.146;11.576;2022-07-12T05:54:11;96118.25;;;19.84;59.67
15444;BME280;7822;48.146;11.576;2022-07-12T05:56:38;96128.22;;;19.73;59.52
15444;BME280;7822;48.146;11.576;2022-07-12T05:59:06;96125.69;;;19.63;59.94
15444;BME280;7822;48.146;11.576;2022-07-12T06:01:34;96127.16;;;19.58;59.88
15444;BME280;7822;48.146;11.576;2022-07-12T06:04:01;96129.63;;;19.59;59.69
15444;BME280;7822;48.146;11.576;2022-07-12T06:06:29;96133.91;;;19.60;59.58
15444;BME280;7822;48.146;11.576;2022-07-12T06:08:57;96132.78;;;19.63;59.72
15444;BME280;7822;48.146;11.576;2022-07-12T06:11:26;96142.03;;;19.67;59.37
15444;BME280;7822;48.146;11.576;2022-07-12T06:13:53;96143.66;;;19.68;59.42
15444;BME280;7822;48.146;11.576;2022-07-12T06:16:21;96139.06;;;19.70;59.45
15444;BME280;7822;48.146;11.576;2022-07-12T06:18:49;96142.34;;;19.72;59.08
15444;BME280;7822;48.146;11.576;2022-07-12T06:21:17;96139.13;;;19.78;58.99
15444;BME280;7822;48.146;11.576;2022-07-12T06:23:44;96143.56;;;19.77;58.93
15444;BME280;7822;48.146;11.576;2022-07-12T06:26:12;96131.72;;;19.81;58.29
15444;BME280;7822;48.146;11.576;2022-07-12T06:28:41;96139.16;;;19.86;58.43
15444;BME280;7822;48.146;11.576;2022-07-12T06:31:09;96144.25;;;19.87;58.23
15444;BME280;7822;48.146;11.576;2022-07-12T06:33:37;96141.97;;;19.92;58.15
15444;BME280;7822;48.146;11.576;2022-07-12T06:36:05;96129.38;;;20.04;58.02
15444;BME280;7822;48.146;11.576;2022-07-12T06:38:33;96141.19;;;20.34;57.41
15444;BME280;7822;48.146;11.576;2022-07-12T06:41:09;96141.66;;;20.29;57.54
15444;BME280;7822;48.146;11.576;2022-07-12T06:43:37;96137.47;;;20.19;58.00
15444;BME280;7822;48.146;11.576;2022-07-12T06:46:06;96135.22;;;20.24;57.39
15444;BME280;7822;48.146;11.576;2022-07-12T06:48:34;96135.25;;;20.32;57.16
15444;BME280;7822;48.146;11.576;2022-07-12T06:51:01;96141.06;;;20.43;56.94
15444;BME280;7822;48.146;11.576;2022-07-12T06:53:29;96132.84;;;20.62;56.17
15444;BME280;7822;48.146;11.576;2022-07-12T06:55:57;96127.56;;;20.54;56.24
15444;BME280;7822;48.146;11.576;2022-07-12T06:58:25;96136.50;;;20.69;56.04
15444;BME280;7822;48.146;11.576;2022-07-12T07:00:52;96128.91;;;20.58;56.01
15444;BME280;7822;48.146;11.576;2022-07-12T07:03:22;96131.34;;;20.44;56.29
15444;BME280;7822;48.146;11.576;2022-07-12T07:05:50;96124.44;;;20.51;56.35
15444;BME280;7822;48.146;11.576;2022-07-12T07:08:17;96131.03;;;20.55;56.15
15444;BME280;7822;48.146;11.576;2022-07-12T07:10:45;96139.56;;;20.41;56.46
15444;BME280;7822;48.146;11.576;2022-07-12T07:13:13;96136.31;;;20.55;56.62
15444;BME280;7822;48.146;11.576;2022-07-12T07:15:41;96136.84;;;20.75;55.87
15444;BME280;7822;48.146;11.576;2022-07-12T07:18:09;96132.88;;;20.79;55.83
15444;BME280;7822;48.146;11.576;2022-07-12T07:20:38;96140.63;;;20.72;56.12
15444;BME280;7822;48.146;11.576;2022-07-12T07:23:07;96144.06;;;20.56;56.05
15444;BME280;7822;48.146;11.576;2022-07-12T07:25:36;96149.31;;;20.56;56.31
15444;BME280;7822;48.146;11.576;2022-07-12T07:28:04;96134.22;;;20.75;55.65
15444;BME280;7822;48.146;11.576;2022-07-12T07:30:32;96136.34;;;20.87;55.19
15444;BME280;7822;48.146;11.576;2022-07-12T07:33:18;96147.91;;;20.94;55.20
15444;BME280;7822;48.146;11.576;2022-07-12T07:35:48;96146.91;;;20.79;54.93
15444;BME280;7822;48.146;11.576;2022-07-12T07:38:16;96138.28;;;20.61;55.49
15444;BME280;7822;48.146;11.576;2022-07-12T07:40:44;96148.19;;;20.59;55.37
15444;BME280;7822;48.146;11.576;2022-07-12T07:43:11;96153.94;;;20.54;55.67
15444;BME280;7822;48.146;11.576;2022-07-12T07:45:39;96156.09;;;20.59;55.44
15444;BME280;7822;48.146;11.576;2022-07-12T07:48:07;96148.66;;;20.54;55.30
15444;BME280;7822;48.146;11.576;2022-07-12T07:50:51;96147.41;;;20.91;54.79
15444;BME280;7822;48.146;11.576;2022-07-12T07:53:19;96150.91;;;21.15;54.03
15444;BME280;7822;48.146;11.576;2022-07-12T07:55:47;96148.25;;;20.99;54.27
15444;BME280;7822;48.146;11.576;2022-07-12T07:58:15;96148.22;;;20.75;55.11
15444;BME280;7822;48.146;11.576;2022-07-12T08:00:43;96151.00;;;20.65;55.42
15444;BME280;7822;48.146;11.576;2022-07-12T08:03:11;96147.06;;;20.78;55.09
15444;BME280;7822;48.146;11.576;2022-07-12T08:05:39;96148.88;;;20.93;54.22
15444;BME280;7822;48.146;11.576;2022-07-12T08:08:08;96145.16;;;21.04;53.81
15444;BME280;7822;48.146;11.576;2022-07-12T08:10:36;96153.56;;;21.07;53.67
15444;BME280;7822;48.146;11.576;2022-07-12T08:13:04;96157.13;;;20.98;53.86
15444;BME280;7822;48.146;11.576;2022-07-12T08:15:31;96145.28;;;20.86;54.15
15444;BME280;7822;48.146;11.576;2022-07-12T08:17:59;96147.56;;;20.81;54.29
15444;BME280;7822;48.146;11.576;2022-07-12T08:20:28;96149.69;;;20.69;54.60
15444;BME280;7822;48.146;11.576;2022-07-12T08:23:15;96155.78;;;20.70;55.16
15444;BME280;7822;48.146;11.576;2022-07-12T08:25:43;96160.41;;;20.84;55.17
15444;BME280;7822;48.146;11.576;2022-07-12T08:28:11;96152.19;;;20.87;55.08
15444;BME280;7822;48.146;11.576;2022-07-12T08:30:39;96156.13;;;20.91;55.07
15444;BME280;7822;48.146;11.576;2022-07-12T08:33:12;96154.34;;;20.92;54.54
15444;BME280;7822;48.146;11.576;2022-07-12T08:35:40;96162.13;;;21.17;54.01
15444;BME280;7822;48.146;11.576;2022-07-12T08:38:08;96161.16;;;21.10;53.95
15444;BME280;7822;48.146;11.576;2022-07-12T08:40:38;96160.44;;;21.00;54.67
15444;BME280;7822;48.146;11.576;2022-07-12T08:43:06;96162.13;;;21.17;53.83
15444;BME280;7822;48.146;11.576;2022-07-12T08:45:34;96162.94;;;21.26;53.84
15444;BME280;7822;48.146;11.576;2022-07-12T08:48:02;96164.78;;;21.33;52.92
15444;BME280;7822;48.146;11.576;2022-07-12T08:50:30;96171.19;;;21.31;53.05
15444;BME280;7822;48.146;11.576;2022-07-12T08:52:58;96160.66;;;21.39;52.85
15444;BME280;7822;48.146;11.576;2022-07-12T08:55:28;96167.19;;;21.83;49.78
15444;BME280;7822;48.146;11.576;2022-07-12T08:57:59;96173.78;;;21.79;49.70
15444;BME280;7822;48.146;11.576;2022-07-12T09:00:29;96175.44;;;21.80;49.42
15444;BME280;7822;48.146;11.576;2022-07-12T09:02:58;96172.00;;;21.72;49.63
15444;BME280;7822;48.146;11.576;2022-07-12T09:05:28;96179.13;;;21.63;49.69
15444;BME280;7822;48.146;11.576;2022-07-12T09:08:02;96182.41;;;21.65;49.12
15444;BME280;7822;48.146;11.576;2022-07-12T09:10:30;96180.25;;;21.85;48.99
15444;BME280;7822;48.146;11.576;2022-07-12T09:12:59;96173.13;;;21.77;49.40
15444;BME280;7822;48.146;11.576;2022-07-12T09:15:28;96170.00;;;21.66;49.99
15444;BME280;7822;48.146;11.576;2022-07-12T09:17:57;96182.91;;;21.61;50.53
15444;BME280;7822;48.146;11.576;2022-07-12T09:20:26;96175.31;;;21.74;50.30
15444;BME280;7822;48.146;11.576;2022-07-12T09:22:55;96183.22;;;21.66;49.29
15444;BME280;7822;48.146;11.576;2022-07-12T09:25:24;96175.97;;;21.68;49.55
15444;BME280;7822;48.146;11.576;2022-07-12T09:27:53;96177.28;;;21.72;49.98
15444;BME280;7822;48.146;11.576;2022-07-12T09:30:24;96173.13;;;21.77;49.79
15444;BME280;7822;48.146;11.576;2022-07-12T09:32:54;96184.53;;;21.94;48.95
15444;BME280;7822;48.146;11.576;2022-07-12T09:35:42;96180.56;;;21.82;49.39
15444;BME280;7822;48.146;11.576;2022-07-12T09:38:28;96180.88;;;21.79;49.85
15444;BME280;7822;48.146;11.576;2022-07-12T09:40:56;96183.53;;;21.71;50.27
15444;BME280;7822;48.146;11.576;2022-07-12T09:43:25;96195.44;;;21.67;50.11
15444;BME280;7822;48.146;11.576;2022-07-12T09:45:54;96187.03;;;21.63;50.40
15444;BME280;7822;48.146;11.576;2022-07-12T09:48:23;96192.47;;;21.78;50.41
15444;BME280;7822;48.146;11.576;2022-07-12T09:50:51;96192.09;;;22.05;49.50
15444;BME280;7822;48.146;11.576;2022-07-12T09:53:20;96191.09;;;22.06;49.06
15444;BME280;7822;48.146;11.576;2022-07-12T09:55:50;96192.78;;;21.91;49.39
15444;BME280;7822;48.146;11.576;2022-07-12T09:58:26;96185.53;;;21.93;49.47
15444;BME280;7822;48.146;11.576;2022-07-12T10:00:58;96193.78;;;21.90;49.85
15444;BME280;7822;48.146;11.576;2022-07-12T10:03:29;96185.53;;;21.85;50.39
15444;BME280;7822;48.146;11.576;2022-07-12T10:06:00;96189.81;;;21.86;50.52
15444;BME280;7822;48.146;11.576;2022-07-12T10:08:29;96191.13;;;21.98;50.07
15444;BME280;7822;48.146;11.576;2022-07-12T10:10:58;96201.03;;;21.96;49.94
15444;BME280;7822;48.146;11.576;2022-07-12T10:13:26;96198.34;;;22.12;49.41
15444;BME280;7822;48.146;11.576;2022-07-12T10:16:00;96196.38;;;22.06;49.93
15444;BME280;7822;48.146;11.576;2022-07-12T10:18:29;96199.81;;;22.23;48.76
15444;BME280;7822;48.146;11.576;2022-07-12T10:20:57;96200.16;;;22.20;48.99
15444;BME280;7822;48.146;11.576;2022-07-12T10:23:33;96201.63;;;22.14;49.37
15444;BME280;7822;48.146;11.576;2022-07-12T10:26:24;96197.72;;;22.49;47.42
15444;BME280;7822;48.146;11.576;2022-07-12T10:29:03;96197.47;;;22.36;48.27
15444;BME280;7822;48.146;11.576;2022-07-12T10:31:35;96195.28;;;22.39;47.85
15444;BME280;7822;48.146;11.576;2022-07-12T10:34:08;96197.97;;;22.31;48.67
15444;BME280;7822;48.146;11.576;2022-07-12T10:37:06;96196.56;;;22.51;48.01
15444;BME280;7822;48.146;11.576;2022-07-12T10:40:11;96200.63;;;22.70;46.86
15444;BME280;7822;48.146;11.576;2022-07-12T10:42:39;96198.19;;;22.60;46.32
15444;BME280;7822;48.146;11.576;2022-07-12T10:45:12;96192.59;;;22.47;47.48
15444;BME280;7822;48.146;11.576;2022-07-12T10:47:57;96189.09;;;22.55;46.70
15444;BME280;7822;48.146;11.576;2022-07-12T10:50:56;96187.16;;;22.41;46.96
15444;BME280;7822;48.146;11.576;2022-07-12T10:53:28;96193.66;;;22.30;47.70
15444;BME280;7822;48.146;11.576;2022-07-12T10:56:12;96188.59;;;22.21;47.25
15444;BME280;7822;48.146;11.576;2022-07-12T10:58:43;96194.03;;;22.27;47.19
15444;BME280;7822;48.146;11.576;2022-07-12T11:01:14;96196.75;;;22.42;47.04
15444;BME280;7822;48.146;11.576;2022-07-12T11:03:46;96185.91;;;22.29;47.32
15444;BME280;7822;48.146;11.576;2022-07-12T11:06:16;96188.38;;;22.30;47.32
15444;BME280;7822;48.146;11.576;2022-07-12T11:08:55;96179.97;;;22.73;44.55
15444;BME280;7822;48.146;11.576;2022-07-12T11:11:26;96183.28;;;22.67;45.10
15444;BME280;7822;48.146;11.576;2022-07-12T11:13:54;96190.91;;;22.54;45.92
15444;BME280;7822;48.146;11.576;2022-07-12T11:16:23;96190.19;;;22.38;46.25
15444;BME280;7822;48.146;11.576;2022-07-12T11:18:53;96195.97;;;22.33;47.06
15444;BME280;7822;48.146;11.576;2022-07-12T11:21:23;96190.19;;;22.30;47.53
15444;BME280;7822;48.146;11.576;2022-07-12T11:23:51;96182.63;;;22.27;47.42
15444;BME280;7822;48.146;11.576;2022-07-12T11:26:19;96186.06;;;22.35;46.90
15444;BME280;7822;48.146;11.576;2022-07-12T11:28:47;96181.59;;;22.74;44.56
15444;BME280;7822;48.146;11.576;2022-07-12T11:31:17;96180.94;;;22.72;45.17
15444;BME280;7822;48.146;11.576;2022-07-12T11:33:46;96169.06;;;22.68;44.99
15444;BME280;7822;48.146;11.576;2022-07-12T11:36:15;96176.53;;;22.57;45.93
15444;BME280;7822;48.146;11.576;2022-07-12T11:38:45;96173.63;;;22.44;46.22
15444;BME280;7822;48.146;11.576;2022-07-12T11:41:14;96173.41;;;22.53;46.56
15444;BME280;7822;48.146;11.576;2022-07-12T11:43:42;96170.91;;;22.52;46.39
15444;BME280;7822;48.146;11.576;2022-07-12T11:46:10;96175.47;;;22.74;45.20
15444;BME280;7822;48.146;11.576;2022-07-12T11:48:41;96172.66;;;22.75;44.40
15444;BME280;7822;48.146;11.576;2022-07-12T11:51:11;96167.91;;;22.94;44.06
15444;BME280;7822;48.146;11.576;2022-07-12T11:53:40;96163.38;;;23.02;44.40
15444;BME280;7822;48.146;11.576;2022-07-12T11:56:09;96164.84;;;23.05;44.16
15444;BME280;7822;48.146;11.576;2022-07-12T11:58:37;96170.44;;;23.10;43.67
15444;BME280;7822;48.146;11.576;2022-07-12T12:01:10;96167.09;;;22.93;44.16
15444;BME280;7822;48.146;11.576;2022-07-12T12:03:43;96165.53;;;22.76;44.27
15444;BME280;7822;48.146;11.576;2022-07-12T12:06:12;96158.59;;;22.75;45.03
15444;BME280;7822;48.146;11.576;2022-07-12T12:08:42;96157.19;;;22.64;45.64
15444;BME280;7822;48.146;11.576;2022-07-12T12:11:11;96159.97;;;22.71;44.66
15444;BME280;7822;48.146;11.576;2022-07-12T12:13:39;96146.81;;;23.08;42.67
15444;BME280;7822;48.146;11.576;2022-07-12T12:16:10;96140.97;;;23.13;42.28
15444;BME280;7822;48.146;11.576;2022-07-12T12:18:40;96147.75;;;23.15;42.93
15444;BME280;7822;48.146;11.576;2022-07-12T12:21:11;96141.03;;;23.05;43.12
15444;BME280;7822;48.146;11.576;2022-07-12T12:23:42;96150.84;;;23.19;42.63
15444;BME280;7822;48.146;11.576;2022-07-12T12:26:14;96154.34;;;23.19;42.93
15444;BME280;7822;48.146;11.576;2022-07-12T12:28:43;96155.19;;;23.12;43.36
15444;BME280;7822;48.146;11.576;2022-07-12T12:31:12;96159.22;;;23.08;42.85
15444;BME280;7822;48.146;11.576;2022-07-12T12:33:42;96155.09;;;23.05;42.47
15444;BME280;7822;48.146;11.576;2022-07-12T12:36:21;96154.09;;;23.06;43.00
15444;BME280;7822;48.146;11.576;2022-07-12T12:38:51;96151.19;;;23.16;42.85
15444;BME280;7822;48.146;11.576;2022-07-12T12:41:21;96143.22;;;23.24;42.08
15444;BME280;7822;48.146;11.576;2022-07-12T12:43:57;96153.25;;;23.28;42.17
15444;BME280;7822;48.146;11.576;2022-07-12T12:46:50;96149.72;;;23.13;42.92
15444;BME280;7822;48.146;11.576;2022-07-12T12:49:20;96140.56;;;23.01;43.71
15444;BME280;7822;48.146;11.576;2022-07-12T12:51:54;96139.50;;;23.33;42.20
15444;BME280;7822;48.146;11.576;2022-07-12T12:54:34;96133.72;;;23.29;42.63
15444;BME280;7822;48.146;11.576;2022-07-12T12:57:03;96142.66;;;23.51;42.15
15444;BME280;7822;48.146;11.576;2022-07-12T12:59:31;96137.09;;;23.61;42.20
15444;BME280;7822;48.146;11.576;2022-07-12T13:02:00;96143.25;;;23.76;41.37
15444;BME280;7822;48.146;11.576;2022-07-12T13:04:28;96141.59;;;23.75;41.55
15444;BME280;7822;48.146;11.576;2022-07-12T13:06:57;96137.19;;;23.52;42.53
15444;BME280;7822;48.146;11.576;2022-07-12T13:09:25;96134.44;;;23.46;41.93
15444;BME280;7822;48.146;11.576;2022-07-12T13:11:55;96138.44;;;23.42;41.82
15444;BME280;7822;48.146;11.576;2022-07-12T13:14:23;96137.25;;;23.44;41.81